sensor_id;sensor_type;location;lat;lon;timestamp;P1;durP1;ratioP1;P2;durP2;ratioP2
40867;SDS011;26586;50.708;22.412;2022-09-13T00:00:56;6.40;;;3.67;;
40867;SDS011;26586;50.708;22.412;2022-09-13T00:03:33;6.38;;;3.83;;
40867;SDS011;26586;50.708;22.412;2022-09-13T00:06:13;6.63;;;4.38;;
40867;SDS011;26586;50.708;22.412;2022-09-13T00:08:41;5.82;;;4.20;;
40867;SDS011;26586;50.708;22.412;2022-09-13T00:11:13;5.40;;;3.85;;
40867;SDS011;26586;50.708;22.412;2022-09-13T00:13:42;5.07;;;3.85;;
40867;SDS011;26586;50.708;22.412;2022-09-13T00:16:13;5.38;;;4.10;;
40867;SDS011;26586;50.708;22.412;2022-09-13T00:18:41;4.63;;;3.60;;
40867;SDS011;26586;50.708;22.412;2022-09-13T00:21:10;5.93;;;4.35;;
40867;SDS011;26586;50.708;22.412;2022-09-13T00:23:39;5.75;;;3.97;;
40867;SDS011;26586;50.708;22.412;2022-09-13T00:26:12;6.07;;;4.10;;
40867;SDS011;26586;50.708;22.412;2022-09-13T00:28:40;5.82;;;3.95;;
40867;SDS011;26586;50.708;22.412;2022-09-13T00:31:08;7.68;;;4.15;;
40867;SDS011;26586;50.708;22.412;2022-09-13T00:36:04;7.70;;;3.92;;
40867;SDS011;26586;50.708;22.412;2022-09-13T00:38:34;5.50;;;3.20;;
40867;SDS011;26586;50.708;22.412;2022-09-13T00:41:02;4.82;;;3.35;;
40867;SDS011;26586;50.708;22.412;2022-09-13T00:43:43;5.78;;;3.63;;
40867;SDS011;26586;50.708;22.412;2022-09-13T00:46:23;6.05;;;3.45;;
40867;SDS011;26586;50.708;22.412;2022-09-13T00:49:13;6.65;;;3.42;;
40867;SDS011;26586;50.708;22.412;2022-09-13T00:51:53;5.60;;;3.65;;
40867;SDS011;26586;50.708;22.412;2022-09-13T00:54:26;4.93;;;3.33;;
40867;SDS011;26586;50.708;22.412;2022-09-13T00:57:00;4.65;;;3.50;;
40867;SDS011;26586;50.708;22.412;2022-09-13T00:59:36;7.93;;;3.55;;
40867;SDS011;26586;50.708;22.412;2022-09-13T01:02:10;8.57;;;3.92;;
40867;SDS011;26586;50.708;22.412;2022-09-13T01:04:37;5.38;;;3.30;;
40867;SDS011;26586;50.708;22.412;2022-09-13T01:07:05;6.35;;;3.35;;
40867;SDS011;26586;50.708;22.412;2022-09-13T01:09:34;8.07;;;3.67;;
40867;SDS011;26586;50.708;22.412;2022-09-13T01:12:05;4.57;;;2.97;;
40867;SDS011;26586;50.708;22.412;2022-09-13T01:14:55;6.93;;;3.47;;
40867;SDS011;26586;50.708;22.412;2022-09-13T01:17:24;5.03;;;3.58;;
40867;SDS011;26586;50.708;22.412;2022-09-13T01:19:52;4.13;;;2.92;;
40867;SDS011;26586;50.708;22.412;2022-09-13T01:22:23;4.00;;;3.13;;
40867;SDS011;26586;50.708;22.412;2022-09-13T01:30:10;10.35;;;3.17;;
40867;SDS011;26586;50.708;22.412;2022-09-13T01:43:36;5.13;;;2.97;;
40867;SDS011;26586;50.708;22.412;2022-09-13T01:47:05;4.60;;;2.95;;
40867;SDS011;26586;50.708;22.412;2022-09-13T01:54:34;3.53;;;2.53;;
40867;SDS011;26586;50.708;22.412;2022-09-13T01:59:53;4.85;;;2.90;;
40867;SDS011;26586;50.708;22.412;2022-09-13T02:02:46;5.05;;;2.95;;
40867;SDS011;26586;50.708;22.412;2022-09-13T02:05:30;5.55;;;3.70;;
40867;SDS011;26586;50.708;22.412;2022-09-13T02:08:09;4.82;;;3.58;;
40867;SDS011;26586;50.708;22.412;2022-09-13T02:14:33;5.68;;;3.70;;
40867;SDS011;26586;50.708;22.412;2022-09-13T02:19:39;4.28;;;2.80;;
40867;SDS011;26586;50.708;22.412;2022-09-13T02:22:12;6.03;;;2.80;;
40867;SDS011;26586;50.708;22.412;2022-09-13T02:24:44;3.80;;;2.67;;
40867;SDS011;26586;50.708;22.412;2022-09-13T02:27:18;4.85;;;2.90;;
40867;SDS011;26586;50.708;22.412;2022-09-13T02:29:49;4.05;;;3.40;;
40867;SDS011;26586;50.708;22.412;2022-09-13T02:32:21;4.40;;;3.05;;
40867;SDS011;26586;50.708;22.412;2022-09-13T02:35:01;5.30;;;2.95;;
40867;SDS011;26586;50.708;22.412;2022-09-13T02:37:32;8.65;;;3.35;;
40867;SDS011;26586;50.708;22.412;2022-09-13T02:40:02;7.75;;;4.63;;
40867;SDS011;26586;50.708;22.412;2022-09-13T02:45:08;7.00;;;2.83;;
40867;SDS011;26586;50.708;22.412;2022-09-13T03:01:32;4.20;;;3.08;;
40867;SDS011;26586;50.708;22.412;2022-09-13T03:04:01;5.75;;;3.17;;
40867;SDS011;26586;50.708;22.412;2022-09-13T03:06:28;7.40;;;3.37;;
40867;SDS011;26586;50.708;22.412;2022-09-13T03:08:55;5.65;;;2.80;;
40867;SDS011;26586;50.708;22.412;2022-09-13T03:20:08;7.10;;;2.88;;
40867;SDS011;26586;50.708;22.412;2022-09-13T03:31:08;6.88;;;2.75;;
40867;SDS011;26586;50.708;22.412;2022-09-13T03:36:13;4.57;;;2.85;;
40867;SDS011;26586;50.708;22.412;2022-09-13T03:38:59;3.78;;;2.88;;
40867;SDS011;26586;50.708;22.412;2022-09-13T03:41:34;7.30;;;3.08;;
40867;SDS011;26586;50.708;22.412;2022-09-13T03:44:04;8.57;;;3.60;;
40867;SDS011;26586;50.708;22.412;2022-09-13T03:46:37;3.33;;;2.92;;
40867;SDS011;26586;50.708;22.412;2022-09-13T03:49:11;4.63;;;2.70;;
40867;SDS011;26586;50.708;22.412;2022-09-13T03:51:40;4.20;;;2.65;;
40867;SDS011;26586;50.708;22.412;2022-09-13T03:54:19;5.45;;;2.88;;
40867;SDS011;26586;50.708;22.412;2022-09-13T03:59:30;4.20;;;2.83;;
40867;SDS011;26586;50.708;22.412;2022-09-13T04:01:57;9.10;;;3.08;;
40867;SDS011;26586;50.708;22.412;2022-09-13T04:04:23;3.90;;;3.03;;
40867;SDS011;26586;50.708;22.412;2022-09-13T04:06:49;6.00;;;3.83;;
40867;SDS011;26586;50.708;22.412;2022-09-13T04:09:16;6.05;;;3.50;;
40867;SDS011;26586;50.708;22.412;2022-09-13T04:11:42;8.43;;;3.28;;
40867;SDS011;26586;50.708;22.412;2022-09-13T04:14:08;6.88;;;3.22;;
40867;SDS011;26586;50.708;22.412;2022-09-13T04:19:01;4.27;;;2.90;;
40867;SDS011;26586;50.708;22.412;2022-09-13T04:21:27;6.68;;;3.70;;
40867;SDS011;26586;50.708;22.412;2022-09-13T04:23:53;4.90;;;3.77;;
40867;SDS011;26586;50.708;22.412;2022-09-13T04:26:19;5.88;;;4.20;;
40867;SDS011;26586;50.708;22.412;2022-09-13T04:28:46;9.65;;;3.97;;
40867;SDS011;26586;50.708;22.412;2022-09-13T04:31:12;9.40;;;4.07;;
40867;SDS011;26586;50.708;22.412;2022-09-13T04:33:38;6.32;;;3.95;;
40867;SDS011;26586;50.708;22.412;2022-09-13T04:36:05;9.77;;;4.53;;
40867;SDS011;26586;50.708;22.412;2022-09-13T04:38:32;6.32;;;4.45;;
40867;SDS011;26586;50.708;22.412;2022-09-13T04:40:58;6.47;;;4.80;;
40867;SDS011;26586;50.708;22.412;2022-09-13T04:43:24;7.40;;;4.15;;
40867;SDS011;26586;50.708;22.412;2022-09-13T04:45:50;6.68;;;4.30;;
40867;SDS011;26586;50.708;22.412;2022-09-13T04:48:16;12.23;;;5.85;;
40867;SDS011;26586;50.708;22.412;2022-09-13T04:50:43;13.65;;;8.93;;
40867;SDS011;26586;50.708;22.412;2022-09-13T04:53:09;7.10;;;4.45;;
40867;SDS011;26586;50.708;22.412;2022-09-13T04:55:36;8.07;;;4.97;;
40867;SDS011;26586;50.708;22.412;2022-09-13T04:58:02;6.85;;;4.45;;
40867;SDS011;26586;50.708;22.412;2022-09-13T05:00:29;12.30;;;4.93;;
40867;SDS011;26586;50.708;22.412;2022-09-13T05:02:57;7.28;;;4.32;;
40867;SDS011;26586;50.708;22.412;2022-09-13T05:05:23;8.73;;;5.45;;
40867;SDS011;26586;50.708;22.412;2022-09-13T05:10:17;8.88;;;4.75;;
40867;SDS011;26586;50.708;22.412;2022-09-13T05:12:43;7.63;;;4.60;;
40867;SDS011;26586;50.708;22.412;2022-09-13T05:15:10;10.20;;;6.20;;
40867;SDS011;26586;50.708;22.412;2022-09-13T05:17:37;10.52;;;5.65;;
40867;SDS011;26586;50.708;22.412;2022-09-13T05:20:03;10.95;;;5.60;;
40867;SDS011;26586;50.708;22.412;2022-09-13T05:22:32;10.70;;;4.90;;
40867;SDS011;26586;50.708;22.412;2022-09-13T05:24:58;8.50;;;5.38;;
40867;SDS011;26586;50.708;22.412;2022-09-13T05:27:24;7.45;;;5.25;;
40867;SDS011;26586;50.708;22.412;2022-09-13T05:29:50;13.10;;;8.23;;
40867;SDS011;26586;50.708;22.412;2022-09-13T05:32:17;7.18;;;4.55;;
40867;SDS011;26586;50.708;22.412;2022-09-13T05:34:43;7.68;;;4.78;;
40867;SDS011;26586;50.708;22.412;2022-09-13T05:37:09;6.90;;;4.47;;
40867;SDS011;26586;50.708;22.412;2022-09-13T05:39:35;9.60;;;4.10;;
40867;SDS011;26586;50.708;22.412;2022-09-13T05:42:01;11.52;;;4.70;;
40867;SDS011;26586;50.708;22.412;2022-09-13T05:44:27;9.80;;;5.07;;
40867;SDS011;26586;50.708;22.412;2022-09-13T05:46:53;11.00;;;6.15;;
40867;SDS011;26586;50.708;22.412;2022-09-13T05:49:20;10.30;;;4.72;;
40867;SDS011;26586;50.708;22.412;2022-09-13T05:51:46;11.40;;;5.70;;
40867;SDS011;26586;50.708;22.412;2022-09-13T05:54:13;10.10;;;5.20;;
40867;SDS011;26586;50.708;22.412;2022-09-13T05:56:39;9.65;;;6.00;;
40867;SDS011;26586;50.708;22.412;2022-09-13T05:59:05;8.55;;;5.78;;
40867;SDS011;26586;50.708;22.412;2022-09-13T06:01:33;8.90;;;5.65;;
40867;SDS011;26586;50.708;22.412;2022-09-13T06:03:59;8.00;;;5.13;;
40867;SDS011;26586;50.708;22.412;2022-09-13T06:06:25;11.00;;;5.95;;
40867;SDS011;26586;50.708;22.412;2022-09-13T06:08:52;11.67;;;6.23;;
40867;SDS011;26586;50.708;22.412;2022-09-13T06:11:19;11.50;;;6.53;;
40867;SDS011;26586;50.708;22.412;2022-09-13T06:13:46;10.32;;;7.07;;
40867;SDS011;26586;50.708;22.412;2022-09-13T06:16:12;15.63;;;7.77;;
40867;SDS011;26586;50.708;22.412;2022-09-13T06:18:40;9.48;;;6.93;;
40867;SDS011;26586;50.708;22.412;2022-09-13T06:21:10;6.50;;;4.50;;
40867;SDS011;26586;50.708;22.412;2022-09-13T06:23:44;6.35;;;4.22;;
40867;SDS011;26586;50.708;22.412;2022-09-13T06:26:12;6.78;;;4.30;;
40867;SDS011;26586;50.708;22.412;2022-09-13T06:28:40;7.07;;;4.20;;
40867;SDS011;26586;50.708;22.412;2022-09-13T06:31:07;11.52;;;4.47;;
40867;SDS011;26586;50.708;22.412;2022-09-13T06:33:39;6.20;;;3.92;;
40867;SDS011;26586;50.708;22.412;2022-09-13T06:36:07;9.27;;;4.93;;
40867;SDS011;26586;50.708;22.412;2022-09-13T06:38:35;8.13;;;4.20;;
40867;SDS011;26586;50.708;22.412;2022-09-13T06:41:04;6.00;;;3.92;;
40867;SDS011;26586;50.708;22.412;2022-09-13T06:43:32;13.63;;;4.95;;
40867;SDS011;26586;50.708;22.412;2022-09-13T06:48:35;8.68;;;4.85;;
40867;SDS011;26586;50.708;22.412;2022-09-13T06:51:03;8.75;;;5.00;;
40867;SDS011;26586;50.708;22.412;2022-09-13T06:53:32;8.27;;;4.30;;
40867;SDS011;26586;50.708;22.412;2022-09-13T06:56:03;11.88;;;5.15;;
40867;SDS011;26586;50.708;22.412;2022-09-13T06:58:32;7.05;;;4.55;;
40867;SDS011;26586;50.708;22.412;2022-09-13T07:03:40;9.00;;;4.50;;
40867;SDS011;26586;50.708;22.412;2022-09-13T07:06:13;14.85;;;8.65;;
40867;SDS011;26586;50.708;22.412;2022-09-13T07:08:41;8.50;;;4.32;;
40867;SDS011;26586;50.708;22.412;2022-09-13T07:11:10;10.75;;;4.90;;
40867;SDS011;26586;50.708;22.412;2022-09-13T07:13:38;7.82;;;3.58;;
40867;SDS011;26586;50.708;22.412;2022-09-13T07:16:06;5.25;;;3.38;;
40867;SDS011;26586;50.708;22.412;2022-09-13T07:18:36;34.67;;;22.00;;
40867;SDS011;26586;50.708;22.412;2022-09-13T07:21:04;6.70;;;4.72;;
40867;SDS011;26586;50.708;22.412;2022-09-13T07:23:36;6.35;;;4.03;;
40867;SDS011;26586;50.708;22.412;2022-09-13T07:26:04;8.18;;;4.18;;
40867;SDS011;26586;50.708;22.412;2022-09-13T07:28:33;10.48;;;4.38;;
40867;SDS011;26586;50.708;22.412;2022-09-13T07:31:04;6.43;;;3.65;;
40867;SDS011;26586;50.708;22.412;2022-09-13T07:33:35;5.40;;;4.18;;
40867;SDS011;26586;50.708;22.412;2022-09-13T07:36:03;5.18;;;3.80;;
40867;SDS011;26586;50.708;22.412;2022-09-13T07:38:37;6.65;;;3.92;;
40867;SDS011;26586;50.708;22.412;2022-09-13T07:41:05;4.78;;;3.70;;
40867;SDS011;26586;50.708;22.412;2022-09-13T07:43:33;12.77;;;4.10;;
40867;SDS011;26586;50.708;22.412;2022-09-13T07:46:04;5.97;;;3.58;;
40867;SDS011;26586;50.708;22.412;2022-09-13T07:48:33;5.78;;;3.45;;
40867;SDS011;26586;50.708;22.412;2022-09-13T07:51:05;9.38;;;3.60;;
40867;SDS011;26586;50.708;22.412;2022-09-13T07:53:33;3.70;;;3.10;;
40867;SDS011;26586;50.708;22.412;2022-09-13T07:56:08;4.28;;;3.30;;
40867;SDS011;26586;50.708;22.412;2022-09-13T07:58:36;5.82;;;3.05;;
40867;SDS011;26586;50.708;22.412;2022-09-13T08:01:11;3.58;;;2.47;;
40867;SDS011;26586;50.708;22.412;2022-09-13T08:03:38;5.78;;;3.60;;
40867;SDS011;26586;50.708;22.412;2022-09-13T08:06:05;5.40;;;2.90;;
40867;SDS011;26586;50.708;22.412;2022-09-13T08:08:32;6.28;;;2.67;;
40867;SDS011;26586;50.708;22.412;2022-09-13T08:11:00;4.40;;;2.90;;
40867;SDS011;26586;50.708;22.412;2022-09-13T08:13:28;9.57;;;2.80;;
40867;SDS011;26586;50.708;22.412;2022-09-13T08:15:54;3.58;;;2.85;;
40867;SDS011;26586;50.708;22.412;2022-09-13T08:18:21;4.53;;;2.30;;
40867;SDS011;26586;50.708;22.412;2022-09-13T08:20:47;5.85;;;2.47;;
40867;SDS011;26586;50.708;22.412;2022-09-13T08:23:13;3.22;;;2.20;;
40867;SDS011;26586;50.708;22.412;2022-09-13T08:25:39;3.90;;;2.38;;
40867;SDS011;26586;50.708;22.412;2022-09-13T08:28:13;4.15;;;2.17;;
40867;SDS011;26586;50.708;22.412;2022-09-13T08:30:41;4.47;;;2.50;;
40867;SDS011;26586;50.708;22.412;2022-09-13T08:33:09;6.22;;;1.70;;
40867;SDS011;26586;50.708;22.412;2022-09-13T08:35:36;3.53;;;1.92;;
40867;SDS011;26586;50.708;22.412;2022-09-13T08:38:03;4.18;;;2.13;;
40867;SDS011;26586;50.708;22.412;2022-09-13T08:40:37;6.13;;;2.78;;
40867;SDS011;26586;50.708;22.412;2022-09-13T08:46:25;8.80;;;2.38;;
40867;SDS011;26586;50.708;22.412;2022-09-13T08:48:59;2.35;;;1.70;;
40867;SDS011;26586;50.708;22.412;2022-09-13T08:51:36;2.20;;;1.75;;
40867;SDS011;26586;50.708;22.412;2022-09-13T08:54:12;6.00;;;2.28;;
40867;SDS011;26586;50.708;22.412;2022-09-13T09:05:50;2.47;;;1.38;;
40867;SDS011;26586;50.708;22.412;2022-09-13T09:11:09;3.15;;;1.40;;
40867;SDS011;26586;50.708;22.412;2022-09-13T09:14:14;3.72;;;1.58;;
40867;SDS011;26586;50.708;22.412;2022-09-13T09:16:57;3.75;;;1.52;;
40867;SDS011;26586;50.708;22.412;2022-09-13T09:19:29;2.50;;;1.70;;
40867;SDS011;26586;50.708;22.412;2022-09-13T09:22:10;7.97;;;1.60;;
40867;SDS011;26586;50.708;22.412;2022-09-13T09:24:43;1.75;;;1.02;;
40867;SDS011;26586;50.708;22.412;2022-09-13T09:27:13;3.13;;;1.48;;
40867;SDS011;26586;50.708;22.412;2022-09-13T09:29:42;2.92;;;1.33;;
40867;SDS011;26586;50.708;22.412;2022-09-13T09:32:24;8.88;;;4.70;;
40867;SDS011;26586;50.708;22.412;2022-09-13T09:35:30;5.22;;;1.50;;
40867;SDS011;26586;50.708;22.412;2022-09-13T09:38:09;3.15;;;1.30;;
40867;SDS011;26586;50.708;22.412;2022-09-13T09:40:58;2.10;;;1.10;;
40867;SDS011;26586;50.708;22.412;2022-09-13T09:43:32;2.13;;;1.25;;
40867;SDS011;26586;50.708;22.412;2022-09-13T09:46:04;2.17;;;1.42;;
40867;SDS011;26586;50.708;22.412;2022-09-13T09:48:38;2.35;;;1.17;;
40867;SDS011;26586;50.708;22.412;2022-09-13T09:51:08;2.08;;;1.42;;
40867;SDS011;26586;50.708;22.412;2022-09-13T09:53:41;2.67;;;1.80;;
40867;SDS011;26586;50.708;22.412;2022-09-13T09:56:25;4.30;;;1.45;;
40867;SDS011;26586;50.708;22.412;2022-09-13T09:58:55;2.60;;;1.63;;
40867;SDS011;26586;50.708;22.412;2022-09-13T10:01:23;4.57;;;1.60;;
40867;SDS011;26586;50.708;22.412;2022-09-13T10:06:38;4.27;;;1.50;;
40867;SDS011;26586;50.708;22.412;2022-09-13T10:14:33;5.10;;;1.55;;
40867;SDS011;26586;50.708;22.412;2022-09-13T10:19:29;6.25;;;1.73;;
40867;SDS011;26586;50.708;22.412;2022-09-13T10:22:00;3.30;;;1.40;;
40867;SDS011;26586;50.708;22.412;2022-09-13T10:24:27;2.13;;;1.00;;
40867;SDS011;26586;50.708;22.412;2022-09-13T10:26:55;3.40;;;1.60;;
40867;SDS011;26586;50.708;22.412;2022-09-13T10:29:22;3.05;;;1.20;;
40867;SDS011;26586;50.708;22.412;2022-09-13T10:31:51;3.72;;;1.58;;
40867;SDS011;26586;50.708;22.412;2022-09-13T10:34:34;1.50;;;0.93;;
40867;SDS011;26586;50.708;22.412;2022-09-13T10:37:43;5.82;;;1.35;;
40867;SDS011;26586;50.708;22.412;2022-09-13T10:42:49;2.35;;;1.08;;
40867;SDS011;26586;50.708;22.412;2022-09-13T10:45:20;2.00;;;0.90;;
40867;SDS011;26586;50.708;22.412;2022-09-13T10:47:49;2.08;;;1.38;;
40867;SDS011;26586;50.708;22.412;2022-09-13T10:52:53;2.60;;;1.10;;
40867;SDS011;26586;50.708;22.412;2022-09-13T11:00:34;7.45;;;1.23;;
40867;SDS011;26586;50.708;22.412;2022-09-13T11:11:42;3.90;;;1.27;;
40867;SDS011;26586;50.708;22.412;2022-09-13T11:16:54;2.40;;;1.10;;
40867;SDS011;26586;50.708;22.412;2022-09-13T11:19:35;1.77;;;0.98;;
40867;SDS011;26586;50.708;22.412;2022-09-13T11:24:55;2.47;;;1.40;;
40867;SDS011;26586;50.708;22.412;2022-09-13T11:27:36;2.05;;;1.02;;
40867;SDS011;26586;50.708;22.412;2022-09-13T11:38:33;2.92;;;1.00;;
40867;SDS011;26586;50.708;22.412;2022-09-13T11:41:18;2.30;;;0.90;;
40867;SDS011;26586;50.708;22.412;2022-09-13T11:54:58;1.88;;;0.75;;
40867;SDS011;26586;50.708;22.412;2022-09-13T11:57:38;1.75;;;0.50;;
40867;SDS011;26586;50.708;22.412;2022-09-13T12:00:21;2.38;;;0.77;;
40867;SDS011;26586;50.708;22.412;2022-09-13T12:03:01;1.40;;;0.60;;
40867;SDS011;26586;50.708;22.412;2022-09-13T12:05:52;1.92;;;0.60;;
40867;SDS011;26586;50.708;22.412;2022-09-13T12:08:22;1.52;;;0.68;;
40867;SDS011;26586;50.708;22.412;2022-09-13T12:11:02;1.38;;;0.90;;
40867;SDS011;26586;50.708;22.412;2022-09-13T12:13:48;3.83;;;0.80;;
40867;SDS011;26586;50.708;22.412;2022-09-13T12:16:27;5.05;;;0.93;;
40867;SDS011;26586;50.708;22.412;2022-09-13T12:19:17;1.13;;;0.50;;
40867;SDS011;26586;50.708;22.412;2022-09-13T12:21:51;1.10;;;0.85;;
40867;SDS011;26586;50.708;22.412;2022-09-13T12:27:07;1.20;;;0.60;;
40867;SDS011;26586;50.708;22.412;2022-09-13T12:29:53;1.15;;;0.60;;
40867;SDS011;26586;50.708;22.412;2022-09-13T12:32:22;2.90;;;0.88;;
40867;SDS011;26586;50.708;22.412;2022-09-13T12:50:44;3.42;;;0.93;;
40867;SDS011;26586;50.708;22.412;2022-09-13T13:01:39;1.40;;;0.98;;
40867;SDS011;26586;50.708;22.412;2022-09-13T13:04:13;4.18;;;1.00;;
40867;SDS011;26586;50.708;22.412;2022-09-13T13:06:48;3.05;;;0.90;;
40867;SDS011;26586;50.708;22.412;2022-09-13T13:12:02;2.10;;;0.75;;
40867;SDS011;26586;50.708;22.412;2022-09-13T13:14:42;2.03;;;0.80;;
40867;SDS011;26586;50.708;22.412;2022-09-13T13:36:21;1.70;;;0.80;;
40867;SDS011;26586;50.708;22.412;2022-09-13T13:38:49;1.23;;;0.57;;
40867;SDS011;26586;50.708;22.412;2022-09-13T13:43:59;1.52;;;0.60;;
40867;SDS011;26586;50.708;22.412;2022-09-13T13:46:30;2.35;;;0.60;;
40867;SDS011;26586;50.708;22.412;2022-09-13T14:02:36;2.72;;;1.15;;
40867;SDS011;26586;50.708;22.412;2022-09-13T14:05:08;2.17;;;0.60;;
40867;SDS011;26586;50.708;22.412;2022-09-13T14:10:35;1.67;;;0.80;;
40867;SDS011;26586;50.708;22.412;2022-09-13T14:21:31;2.75;;;1.30;;
40867;SDS011;26586;50.708;22.412;2022-09-13T14:24:17;2.17;;;1.10;;
40867;SDS011;26586;50.708;22.412;2022-09-13T14:29:15;5.22;;;1.23;;
40867;SDS011;26586;50.708;22.412;2022-09-13T14:31:45;6.05;;;1.48;;
40867;SDS011;26586;50.708;22.412;2022-09-13T14:34:19;3.33;;;1.17;;
40867;SDS011;26586;50.708;22.412;2022-09-13T14:36:54;6.85;;;1.30;;
40867;SDS011;26586;50.708;22.412;2022-09-13T14:39:24;2.95;;;0.80;;
40867;SDS011;26586;50.708;22.412;2022-09-13T14:41:58;0.98;;;0.70;;
40867;SDS011;26586;50.708;22.412;2022-09-13T14:44:36;5.72;;;1.20;;
40867;SDS011;26586;50.708;22.412;2022-09-13T14:47:12;1.30;;;1.02;;
40867;SDS011;26586;50.708;22.412;2022-09-13T14:50:03;2.38;;;1.15;;
40867;SDS011;26586;50.708;22.412;2022-09-13T14:52:37;4.60;;;1.30;;
40867;SDS011;26586;50.708;22.412;2022-09-13T14:55:15;1.15;;;0.73;;
40867;SDS011;26586;50.708;22.412;2022-09-13T14:57:47;3.08;;;0.70;;
40867;SDS011;26586;50.708;22.412;2022-09-13T15:00:18;2.42;;;0.82;;
40867;SDS011;26586;50.708;22.412;2022-09-13T15:02:48;1.23;;;0.70;;
40867;SDS011;26586;50.708;22.412;2022-09-13T15:05:16;1.33;;;0.90;;
40867;SDS011;26586;50.708;22.412;2022-09-13T15:07:45;1.48;;;1.00;;
40867;SDS011;26586;50.708;22.412;2022-09-13T15:12:48;1.50;;;0.95;;
40867;SDS011;26586;50.708;22.412;2022-09-13T15:17:57;1.50;;;0.73;;
40867;SDS011;26586;50.708;22.412;2022-09-13T15:21:14;2.38;;;0.85;;
40867;SDS011;26586;50.708;22.412;2022-09-13T15:23:34;2.17;;;1.13;;
40867;SDS011;26586;50.708;22.412;2022-09-13T15:26:11;2.03;;;1.10;;
40867;SDS011;26586;50.708;22.412;2022-09-13T15:31:21;3.00;;;1.25;;
40867;SDS011;26586;50.708;22.412;2022-09-13T15:37:30;4.13;;;2.33;;
40867;SDS011;26586;50.708;22.412;2022-09-13T15:42:46;4.45;;;2.78;;
40867;SDS011;26586;50.708;22.412;2022-09-13T15:45:15;3.75;;;1.60;;
40867;SDS011;26586;50.708;22.412;2022-09-13T15:47:45;2.03;;;1.45;;
40867;SDS011;26586;50.708;22.412;2022-09-13T15:50:24;1.92;;;1.10;;
40867;SDS011;26586;50.708;22.412;2022-09-13T15:52:53;3.28;;;1.83;;
40867;SDS011;26586;50.708;22.412;2022-09-13T15:55:20;3.60;;;1.10;;
40867;SDS011;26586;50.708;22.412;2022-09-13T16:00:18;2.15;;;0.90;;
40867;SDS011;26586;50.708;22.412;2022-09-13T16:02:46;1.38;;;0.85;;
40867;SDS011;26586;50.708;22.412;2022-09-13T16:05:13;5.40;;;1.00;;
40867;SDS011;26586;50.708;22.412;2022-09-13T16:07:39;7.78;;;1.92;;
40867;SDS011;26586;50.708;22.412;2022-09-13T16:10:26;19.60;;;3.63;;
40867;SDS011;26586;50.708;22.412;2022-09-13T16:12:53;5.97;;;2.88;;
40867;SDS011;26586;50.708;22.412;2022-09-13T16:17:45;7.60;;;3.25;;
40867;SDS011;26586;50.708;22.412;2022-09-13T16:20:12;3.80;;;2.47;;
40867;SDS011;26586;50.708;22.412;2022-09-13T16:22:40;3.40;;;1.67;;
40867;SDS011;26586;50.708;22.412;2022-09-13T16:25:07;4.70;;;2.50;;
40867;SDS011;26586;50.708;22.412;2022-09-13T16:27:37;11.50;;;4.70;;
40867;SDS011;26586;50.708;22.412;2022-09-13T16:30:04;6.15;;;3.50;;
40867;SDS011;26586;50.708;22.412;2022-09-13T16:32:31;5.40;;;3.08;;
40867;SDS011;26586;50.708;22.412;2022-09-13T16:34:57;5.50;;;2.83;;
40867;SDS011;26586;50.708;22.412;2022-09-13T16:37:24;7.70;;;2.78;;
40867;SDS011;26586;50.708;22.412;2022-09-13T16:39:50;4.93;;;3.10;;
40867;SDS011;26586;50.708;22.412;2022-09-13T16:42:16;4.13;;;1.95;;
40867;SDS011;26586;50.708;22.412;2022-09-13T16:44:42;3.70;;;2.08;;
40867;SDS011;26586;50.708;22.412;2022-09-13T16:47:09;4.20;;;2.10;;
40867;SDS011;26586;50.708;22.412;2022-09-13T16:49:35;6.63;;;2.23;;
40867;SDS011;26586;50.708;22.412;2022-09-13T16:52:01;7.97;;;2.42;;
40867;SDS011;26586;50.708;22.412;2022-09-13T16:54:28;4.97;;;2.78;;
40867;SDS011;26586;50.708;22.412;2022-09-13T16:56:55;4.07;;;3.20;;
40867;SDS011;26586;50.708;22.412;2022-09-13T16:59:23;4.80;;;3.35;;
40867;SDS011;26586;50.708;22.412;2022-09-13T17:01:49;12.83;;;9.00;;
40867;SDS011;26586;50.708;22.412;2022-09-13T17:04:15;4.65;;;3.05;;
40867;SDS011;26586;50.708;22.412;2022-09-13T17:06:42;3.70;;;2.67;;
40867;SDS011;26586;50.708;22.412;2022-09-13T17:09:08;3.53;;;2.63;;
40867;SDS011;26586;50.708;22.412;2022-09-13T17:11:36;4.13;;;2.78;;
40867;SDS011;26586;50.708;22.412;2022-09-13T17:14:08;3.42;;;2.67;;
40867;SDS011;26586;50.708;22.412;2022-09-13T17:16:40;5.32;;;3.28;;
40867;SDS011;26586;50.708;22.412;2022-09-13T17:19:16;11.02;;;6.60;;
40867;SDS011;26586;50.708;22.412;2022-09-13T17:21:44;41.22;;;17.17;;
40867;SDS011;26586;50.708;22.412;2022-09-13T17:24:11;87.03;;;34.30;;
40867;SDS011;26586;50.708;22.412;2022-09-13T17:26:38;123.60;;;42.15;;
40867;SDS011;26586;50.708;22.412;2022-09-13T17:29:04;127.13;;;45.85;;
40867;SDS011;26586;50.708;22.412;2022-09-13T17:31:31;106.95;;;43.70;;
40867;SDS011;26586;50.708;22.412;2022-09-13T17:33:57;63.90;;;32.00;;
40867;SDS011;26586;50.708;22.412;2022-09-13T17:36:23;57.35;;;30.52;;
40867;SDS011;26586;50.708;22.412;2022-09-13T17:38:53;42.22;;;25.48;;
40867;SDS011;26586;50.708;22.412;2022-09-13T17:41:21;35.25;;;21.90;;
40867;SDS011;26586;50.708;22.412;2022-09-13T17:43:48;20.58;;;14.48;;
40867;SDS011;26586;50.708;22.412;2022-09-13T17:46:15;19.27;;;12.77;;
40867;SDS011;26586;50.708;22.412;2022-09-13T17:48:46;16.55;;;11.02;;
40867;SDS011;26586;50.708;22.412;2022-09-13T17:51:15;18.35;;;11.32;;
40867;SDS011;26586;50.708;22.412;2022-09-13T17:53:43;13.52;;;10.45;;
40867;SDS011;26586;50.708;22.412;2022-09-13T17:56:15;15.48;;;10.07;;
40867;SDS011;26586;50.708;22.412;2022-09-13T17:58:54;16.88;;;9.88;;
40867;SDS011;26586;50.708;22.412;2022-09-13T18:01:21;18.88;;;9.73;;
40867;SDS011;26586;50.708;22.412;2022-09-13T18:03:48;12.25;;;7.75;;
40867;SDS011;26586;50.708;22.412;2022-09-13T18:06:14;10.00;;;6.15;;
40867;SDS011;26586;50.708;22.412;2022-09-13T18:08:40;9.37;;;6.53;;
40867;SDS011;26586;50.708;22.412;2022-09-13T18:11:08;7.53;;;5.38;;
40867;SDS011;26586;50.708;22.412;2022-09-13T18:13:36;6.78;;;4.60;;
40867;SDS011;26586;50.708;22.412;2022-09-13T18:16:05;7.47;;;4.90;;
40867;SDS011;26586;50.708;22.412;2022-09-13T18:18:35;7.50;;;4.60;;
40867;SDS011;26586;50.708;22.412;2022-09-13T18:21:03;5.00;;;4.50;;
40867;SDS011;26586;50.708;22.412;2022-09-13T18:23:30;7.03;;;4.85;;
40867;SDS011;26586;50.708;22.412;2022-09-13T18:26:01;7.70;;;4.47;;
40867;SDS011;26586;50.708;22.412;2022-09-13T18:28:29;4.43;;;3.47;;
40867;SDS011;26586;50.708;22.412;2022-09-13T18:30:56;6.35;;;3.90;;
40867;SDS011;26586;50.708;22.412;2022-09-13T18:33:24;4.80;;;3.50;;
40867;SDS011;26586;50.708;22.412;2022-09-13T18:35:58;7.40;;;3.92;;
40867;SDS011;26586;50.708;22.412;2022-09-13T18:41:10;5.07;;;3.03;;
40867;SDS011;26586;50.708;22.412;2022-09-13T18:43:38;5.50;;;3.22;;
40867;SDS011;26586;50.708;22.412;2022-09-13T18:46:10;4.03;;;3.08;;
40867;SDS011;26586;50.708;22.412;2022-09-13T18:48:39;3.63;;;2.90;;
40867;SDS011;26586;50.708;22.412;2022-09-13T18:51:10;6.05;;;3.85;;
40867;SDS011;26586;50.708;22.412;2022-09-13T18:53:39;5.55;;;3.25;;
40867;SDS011;26586;50.708;22.412;2022-09-13T18:56:06;5.35;;;3.15;;
40867;SDS011;26586;50.708;22.412;2022-09-13T18:58:34;4.68;;;3.53;;
40867;SDS011;26586;50.708;22.412;2022-09-13T19:01:09;5.78;;;3.92;;
40867;SDS011;26586;50.708;22.412;2022-09-13T19:03:49;7.63;;;3.95;;
40867;SDS011;26586;50.708;22.412;2022-09-13T19:06:34;4.45;;;3.25;;